Iblea — IBFK — position and weather

sailwx.info

Track history (hours):
 
Tides and Currents Weather Stations Pressure Air Temp Water Temp Dewpoint Dewpoint Depression Visibility Wind Speed Wind Dir Waves Ship Positions

Iblea

Last reported at 2014-Jul-31 23:18 UTC. Time now 2014-Jul-31 23:50 UTC.
Position N 40°57' E 028°52'.

Length 176 m; draft 7.4 m.

Type: Ship (hazmat cat A). MMSI: 247087700.

Date/timePositionNaut miles runAvg speedWind from/ knotsBaromVisibWave heightAir tempDewpointWater temp
2014-Jul-31 23:18N 40°57' E 028°52'0 0.0
2014-Jul-31 17:24N 40°57' E 028°52'0 0.0
2014-Jul-31 09:30N 40°57' E 028°53'85 7.7
2014-Jul-30 22:25N 40°32' E 027°05'1112.6
2014-Jul-30 21:31N 40°28' E 026°51'5410.8
2014-Jul-30 16:30N 39°54' E 025°55'7 1.7
2014-Jul-30 12:19N 39°47' E 025°56'0 0.0
2014-Jul-30 10:25N 39°47' E 025°56'6 7.5
2014-Jul-30 09:33N 39°44' E 025°49'1313.6
2014-Jul-30 08:33N 39°33' E 025°39'1413.6
2014-Jul-30 07:30N 39°20' E 025°31'1313.3
2014-Jul-30 06:32N 39°08' E 025°23'1313.4
2014-Jul-30 05:33N 38°57' E 025°15'6913.9
2014-Jul-30 00:33N 37°55' E 024°35'1614.9
2014-Jul-29 23:30N 37°45' E 024°20'1414.4
2014-Jul-29 22:33N 37°34' E 024°09'1514.6
2014-Jul-29 21:31N 37°21' E 023°60'1414.4
2014-Jul-29 20:33N 37°09' E 023°50'1414.1
2014-Jul-29 19:33N 36°57' E 023°41'1914.2
2014-Jul-29 18:15N 36°41' E 023°30'1014.0
2014-Jul-29 17:33N 36°33' E 023°24'1313.5
2014-Jul-29 16:33N 36°22' E 023°14'  
Track history (hours):
 
Tides and Currents Weather Stations Pressure Air Temp Water Temp Dewpoint Dewpoint Depression Visibility Wind Speed Wind Dir Waves Ship Positions

Iblea

Last reported at 2014-Jul-31 23:18 UTC. Time now 2014-Jul-31 23:50 UTC.
Position N 40°57' E 028°52'.

Length 176 m; draft 7.4 m.

Type: Ship (hazmat cat A). MMSI: 247087700.

Date/timePositionNaut miles runAvg speedWind from/ knotsBaromVisibWave heightAir tempDewpointWater temp
2014-Jul-31 23:18N 40°57' E 028°52'0 0.0
2014-Jul-31 17:24N 40°57' E 028°52'0 0.0
2014-Jul-31 09:30N 40°57' E 028°53'85 7.7
2014-Jul-30 22:25N 40°32' E 027°05'1112.6
2014-Jul-30 21:31N 40°28' E 026°51'5410.8
2014-Jul-30 16:30N 39°54' E 025°55'7 1.7
2014-Jul-30 12:19N 39°47' E 025°56'0 0.0
2014-Jul-30 10:25N 39°47' E 025°56'6 7.5
2014-Jul-30 09:33N 39°44' E 025°49'1313.6
2014-Jul-30 08:33N 39°33' E 025°39'1413.6
2014-Jul-30 07:30N 39°20' E 025°31'1313.3
2014-Jul-30 06:32N 39°08' E 025°23'1313.4
2014-Jul-30 05:33N 38°57' E 025°15'6913.9
2014-Jul-30 00:33N 37°55' E 024°35'1614.9
2014-Jul-29 23:30N 37°45' E 024°20'1414.4
2014-Jul-29 22:33N 37°34' E 024°09'1514.6
2014-Jul-29 21:31N 37°21' E 023°60'1414.4
2014-Jul-29 20:33N 37°09' E 023°50'1414.1
2014-Jul-29 19:33N 36°57' E 023°41'1914.2
2014-Jul-29 18:15N 36°41' E 023°30'1014.0
2014-Jul-29 17:33N 36°33' E 023°24'1313.5
2014-Jul-29 16:33N 36°22' E 023°14'  

Dump ship's entire track history